Time;durP1;ratioP1;P1;durP2;ratioP2;P2;SDS_P1;SDS_P2;PMS_P1;PMS_P2;Temp;Humidity;BMP_temperature;BMP_pressure;BME280_temperature;BME280_humidity;BME280_pressure;Samples;Min_cycle;Max_cycle;Signal;HPM_P1;HPM_P2
2021/07/30 00:02:58;;;;;;;11.98;6.65;;;;;;;;;;6258386;23;20174;-89
2021/07/30 00:06:05;;;;;;;13.35;6.75;;;;;;;;;;6241823;23;20154;-88
2021/07/30 00:09:11;;;;;;;11.73;7.13;;;;;;;;;;6257998;23;20170;-88
2021/07/30 00:12:18;;;;;;;10.35;6.72;;;;;;;;;;6260173;23;20178;-88
2021/07/30 00:15:23;;;;;;;14.50;6.72;;;;;;;;;;6260565;23;20189;-88
2021/07/30 00:18:28;;;;;;;12.77;6.68;;;;;;;;;;6239797;23;20162;-88
2021/07/30 00:21:35;;;;;;;12.60;6.53;;;;;;;;;;6259667;23;20154;-89
2021/07/30 00:24:40;;;;;;;15.98;6.90;;;;;;;;;;6240989;23;20172;-89
2021/07/30 00:27:44;;;;;;;11.70;6.32;;;;;;;;;;6258387;23;20170;-89
2021/07/30 00:30:49;;;;;;;15.25;6.43;;;;;;;;;;6258928;22;20230;-90
2021/07/30 00:33:55;;;;;;;12.98;6.60;;;;;;;;;;6260064;23;20186;-87
2021/07/30 00:37:01;;;;;;;11.45;6.20;;;;;;;;;;6241316;23;20190;-89
2021/07/30 00:40:06;;;;;;;14.90;6.68;;;;;;;;;;6257796;23;20248;-90
2021/07/30 00:43:12;;;;;;;11.80;6.78;;;;;;;;;;6260189;23;20159;-88
2021/07/30 00:46:17;;;;;;;12.63;6.60;;;;;;;;;;6260502;23;20174;-88
2021/07/30 00:49:22;;;;;;;15.88;7.18;;;;;;;;;;6240383;22;20595;-88
2021/07/30 00:52:28;;;;;;;12.63;6.50;;;;;;;;;;6259460;23;20209;-88
2021/07/30 00:55:34;;;;;;;11.65;7.03;;;;;;;;;;6258702;23;20178;-88
2021/07/30 00:58:39;;;;;;;9.80;6.30;;;;;;;;;;6259170;23;20277;-88
2021/07/30 01:01:45;;;;;;;12.73;6.93;;;;;;;;;;6258707;23;20565;-90
2021/07/30 01:04:50;;;;;;;14.30;6.93;;;;;;;;;;6258842;23;20209;-89
2021/07/30 01:07:56;;;;;;;15.40;7.50;;;;;;;;;;6242016;23;20171;-89
2021/07/30 01:11:01;;;;;;;13.57;6.60;;;;;;;;;;6260821;23;20647;-89
2021/07/30 01:14:07;;;;;;;14.70;7.13;;;;;;;;;;6242172;23;20641;-88
2021/07/30 01:17:12;;;;;;;12.55;7.20;;;;;;;;;;6257623;23;20173;-88
2021/07/30 01:20:17;;;;;;;13.88;7.00;;;;;;;;;;6241627;23;20146;-88
2021/07/30 01:23:24;;;;;;;11.80;6.53;;;;;;;;;;6257593;23;20186;-89
2021/07/30 01:26:29;;;;;;;13.18;6.57;;;;;;;;;;6258769;23;20171;-89
2021/07/30 01:29:34;;;;;;;11.05;6.28;;;;;;;;;;6269799;23;20171;-88
2021/07/30 01:32:39;;;;;;;12.93;6.38;;;;;;;;;;6237729;23;20698;-88
2021/07/30 01:35:44;;;;;;;10.75;6.53;;;;;;;;;;6253632;23;20266;-86
2021/07/30 01:38:50;;;;;;;11.05;6.88;;;;;;;;;;6255133;23;20170;-89
2021/07/30 01:41:56;;;;;;;11.88;6.93;;;;;;;;;;6254885;23;20166;-88
2021/07/30 01:45:01;;;;;;;11.82;6.90;;;;;;;;;;6254478;23;20167;-89
2021/07/30 01:48:08;;;;;;;10.15;6.68;;;;;;;;;;6237323;23;20166;-88
2021/07/30 01:51:12;;;;;;;13.73;6.45;;;;;;;;;;6254581;23;20217;-88
2021/07/30 01:54:19;;;;;;;16.35;7.03;;;;;;;;;;6245598;23;20169;-88
2021/07/30 01:57:24;;;;;;;12.63;6.95;;;;;;;;;;6245742;22;20242;-88
2021/07/30 02:00:28;;;;;;;15.70;7.10;;;;;;;;;;6263902;23;20285;-87
2021/07/30 02:03:34;;;;;;;11.85;6.75;;;;;;;;;;6265570;22;20198;-88
2021/07/30 02:06:39;;;;;;;11.57;6.82;;;;;;;;;;6264428;23;20223;-87
2021/07/30 02:09:45;;;;;;;10.60;6.60;;;;;;;;;;6261361;23;20234;-87
2021/07/30 02:16:13;;;;;;;12.13;7.00;;;;;;;;;;6254369;23;20167;-89
2021/07/30 02:19:19;;;;;;;14.23;7.18;;;;;;;;;;6254796;23;20223;-88
2021/07/30 02:22:24;;;;;;;13.23;7.60;;;;;;;;;;6257960;23;20159;-89
2021/07/30 02:25:30;;;;;;;13.15;8.15;;;;;;;;;;6256023;23;20622;-87
2021/07/30 02:28:35;;;;;;;14.35;7.72;;;;;;;;;;6256134;22;20222;-88
2021/07/30 02:31:40;;;;;;;18.15;8.13;;;;;;;;;;6254193;23;20258;-89
2021/07/30 02:34:45;;;;;;;17.63;8.35;;;;;;;;;;6238139;23;20190;-88
2021/07/30 02:37:50;;;;;;;15.48;7.38;;;;;;;;;;6254199;23;20167;-87
2021/07/30 02:40:56;;;;;;;18.17;8.55;;;;;;;;;;6254938;23;20241;-89
2021/07/30 02:44:01;;;;;;;25.00;8.07;;;;;;;;;;6253380;23;20235;-89
2021/07/30 02:47:07;;;;;;;18.10;8.13;;;;;;;;;;6255426;23;20202;-88
2021/07/30 02:50:12;;;;;;;18.25;8.50;;;;;;;;;;6255305;23;20167;-89
2021/07/30 02:53:17;;;;;;;19.50;7.80;;;;;;;;;;6254860;23;20290;-89
2021/07/30 02:56:24;;;;;;;17.73;7.95;;;;;;;;;;6255625;23;20167;-90
2021/07/30 02:59:29;;;;;;;16.00;7.80;;;;;;;;;;6255553;23;20170;-87
2021/07/30 03:02:34;;;;;;;17.10;8.38;;;;;;;;;;6256235;23;20269;-88
2021/07/30 03:05:39;;;;;;;14.32;7.88;;;;;;;;;;6254993;23;20710;-88
2021/07/30 03:08:43;;;;;;;11.82;7.22;;;;;;;;;;6255756;23;20634;-88
2021/07/30 03:11:50;;;;;;;13.57;7.15;;;;;;;;;;6256278;23;20166;-89
2021/07/30 03:14:55;;;;;;;11.40;6.70;;;;;;;;;;6254434;23;20721;-88
2021/07/30 03:18:00;;;;;;;13.73;7.15;;;;;;;;;;6254840;23;20195;-87
2021/07/30 03:21:05;;;;;;;15.35;7.22;;;;;;;;;;6256330;23;20170;-88
2021/07/30 03:24:12;;;;;;;16.63;7.13;;;;;;;;;;6238831;23;20194;-89
2021/07/30 03:27:18;;;;;;;11.13;6.07;;;;;;;;;;6237966;23;20633;-88
2021/07/30 03:30:23;;;;;;;9.98;6.72;;;;;;;;;;6255412;23;20213;-87
2021/07/30 03:33:28;;;;;;;12.90;6.43;;;;;;;;;;6255305;23;20221;-89
2021/07/30 03:36:33;;;;;;;14.23;7.18;;;;;;;;;;6255962;23;20490;-87
2021/07/30 03:39:40;;;;;;;14.63;7.15;;;;;;;;;;6255800;23;20182;-88
2021/07/30 03:42:46;;;;;;;13.43;6.85;;;;;;;;;;6255491;23;20218;-88
2021/07/30 03:45:52;;;;;;;11.68;6.60;;;;;;;;;;6255172;23;20265;-90
2021/07/30 03:48:57;;;;;;;11.70;6.85;;;;;;;;;;6253523;23;20173;-89
2021/07/30 03:52:03;;;;;;;18.05;7.40;;;;;;;;;;6254890;23;20162;-89
2021/07/30 03:55:08;;;;;;;14.43;7.40;;;;;;;;;;6237943;23;20351;-87
2021/07/30 03:58:15;;;;;;;13.20;7.78;;;;;;;;;;6252292;23;20167;-88
2021/07/30 04:01:20;;;;;;;13.85;7.43;;;;;;;;;;6253228;23;20268;-89
2021/07/30 04:04:26;;;;;;;14.30;7.50;;;;;;;;;;6253356;23;20740;-87
2021/07/30 04:07:33;;;;;;;14.13;7.50;;;;;;;;;;6254819;22;20161;-88
2021/07/30 04:10:38;;;;;;;12.88;7.65;;;;;;;;;;6254053;23;20221;-89
2021/07/30 04:13:46;;;;;;;17.80;8.25;;;;;;;;;;6256004;23;20163;-88
2021/07/30 04:16:50;;;;;;;21.50;10.38;;;;;;;;;;6237287;23;20166;-88
2021/07/30 04:19:55;;;;;;;13.07;7.30;;;;;;;;;;6237226;23;20178;-88
2021/07/30 04:23:00;;;;;;;13.07;7.75;;;;;;;;;;6252579;23;20245;-88
2021/07/30 04:26:05;;;;;;;14.82;8.18;;;;;;;;;;6239064;23;20182;-89
2021/07/30 04:29:11;;;;;;;13.40;8.20;;;;;;;;;;6256334;23;20166;-90
2021/07/30 04:32:16;;;;;;;15.07;8.02;;;;;;;;;;6257108;23;20221;-88
2021/07/30 04:35:21;;;;;;;16.00;8.25;;;;;;;;;;6257074;22;20158;-90
2021/07/30 04:38:27;;;;;;;18.60;8.65;;;;;;;;;;6238590;23;20174;-89
2021/07/30 04:41:35;;;;;;;15.05;8.05;;;;;;;;;;6256129;23;20170;-87
2021/07/30 04:44:41;;;;;;;12.85;7.40;;;;;;;;;;6254545;23;20652;-90
2021/07/30 04:47:46;;;;;;;15.35;7.45;;;;;;;;;;6258438;22;20150;-90
2021/07/30 04:50:51;;;;;;;15.00;7.57;;;;;;;;;;6241642;23;20167;-90
2021/07/30 04:53:56;;;;;;;13.55;7.28;;;;;;;;;;6255220;23;20592;-90
2021/07/30 04:57:01;;;;;;;16.52;7.22;;;;;;;;;;6254968;23;20170;-90
2021/07/30 05:00:09;;;;;;;12.68;7.22;;;;;;;;;;6256632;23;20166;-89
2021/07/30 05:03:14;;;;;;;12.65;7.38;;;;;;;;;;6256509;23;20170;-89
2021/07/30 05:06:21;;;;;;;18.40;7.35;;;;;;;;;;6258884;23;20205;-90
2021/07/30 05:09:31;;;;;;;18.95;8.60;;;;;;;;;;6238104;23;20185;-88
2021/07/30 05:12:36;;;;;;;15.50;6.72;;;;;;;;;;6256944;23;20173;-86
2021/07/30 05:15:42;;;;;;;14.32;6.82;;;;;;;;;;6239453;23;20165;-89
2021/07/30 05:18:48;;;;;;;12.57;7.40;;;;;;;;;;6256009;23;20244;-89
2021/07/30 05:21:53;;;;;;;15.15;7.28;;;;;;;;;;6257121;23;20166;-89
2021/07/30 05:24:58;;;;;;;10.23;7.13;;;;;;;;;;6258158;23;20301;-87
2021/07/30 05:28:03;;;;;;;13.52;7.00;;;;;;;;;;6255410;23;20175;-87
2021/07/30 05:31:14;;;;;;;10.52;6.60;;;;;;;;;;6256912;23;20178;-89
2021/07/30 05:34:19;;;;;;;16.25;7.10;;;;;;;;;;6256806;23;20166;-88
2021/07/30 05:37:24;;;;;;;12.48;7.32;;;;;;;;;;6259553;23;20170;-88
2021/07/30 05:40:29;;;;;;;12.32;6.75;;;;;;;;;;6241246;22;20630;-88
2021/07/30 05:43:34;;;;;;;12.52;7.22;;;;;;;;;;6238756;23;20206;-88
2021/07/30 05:46:41;;;;;;;12.05;7.78;;;;;;;;;;6254522;23;20517;-88
2021/07/30 05:49:48;;;;;;;12.32;7.78;;;;;;;;;;6254464;23;20174;-88
2021/07/30 05:52:54;;;;;;;12.63;7.90;;;;;;;;;;6254298;22;20162;-88
2021/07/30 05:55:59;;;;;;;13.05;8.23;;;;;;;;;;6255328;23;20158;-87
2021/07/30 05:59:06;;;;;;;17.38;7.95;;;;;;;;;;6254892;23;20170;-87
2021/07/30 06:02:12;;;;;;;14.65;8.15;;;;;;;;;;6237852;23;20205;-88
2021/07/30 06:05:17;;;;;;;20.73;9.00;;;;;;;;;;6257553;23;20511;-87
2021/07/30 06:08:22;;;;;;;14.68;8.55;;;;;;;;;;6239409;23;20487;-88
2021/07/30 06:11:27;;;;;;;14.63;8.95;;;;;;;;;;6256401;23;20561;-88
2021/07/30 06:14:32;;;;;;;16.55;8.98;;;;;;;;;;6255457;23;20174;-89
2021/07/30 06:17:39;;;;;;;17.65;9.35;;;;;;;;;;6254200;23;20166;-88
2021/07/30 06:20:43;;;;;;;16.80;9.07;;;;;;;;;;6256242;22;20167;-88
2021/07/30 06:23:49;;;;;;;12.05;7.55;;;;;;;;;;6238524;23;20199;-87
2021/07/30 06:26:54;;;;;;;14.57;8.40;;;;;;;;;;6239303;23;20190;-88
2021/07/30 06:29:59;;;;;;;14.05;7.65;;;;;;;;;;6256418;23;20581;-89
2021/07/30 06:33:10;;;;;;;11.52;7.00;;;;;;;;;;6257462;23;20213;-89
2021/07/30 06:36:17;;;;;;;15.02;7.00;;;;;;;;;;6257623;23;20231;-89
2021/07/30 06:39:22;;;;;;;10.15;6.55;;;;;;;;;;6238291;23;20158;-88
2021/07/30 06:42:27;;;;;;;9.82;6.10;;;;;;;;;;6239427;23;20166;-88
2021/07/30 06:45:33;;;;;;;12.80;6.57;;;;;;;;;;6257219;23;20191;-88
2021/07/30 06:48:40;;;;;;;11.93;6.70;;;;;;;;;;6256544;23;20174;-88
2021/07/30 06:51:47;;;;;;;12.82;6.30;;;;;;;;;;6257927;22;20183;-87
2021/07/30 06:54:55;;;;;;;11.98;6.82;;;;;;;;;;6255758;23;20317;-88
2021/07/30 06:58:00;;;;;;;15.15;7.93;;;;;;;;;;6255286;23;20174;-89
2021/07/30 07:01:07;;;;;;;13.93;7.18;;;;;;;;;;6255456;23;20194;-89
2021/07/30 07:04:13;;;;;;;13.00;7.20;;;;;;;;;;6256209;23;20167;-88
2021/07/30 07:07:18;;;;;;;11.90;7.80;;;;;;;;;;6256289;23;20166;-88
2021/07/30 07:10:23;;;;;;;10.30;7.00;;;;;;;;;;6238688;23;20170;-89
2021/07/30 07:13:29;;;;;;;15.38;7.05;;;;;;;;;;6253025;23;20159;-90
2021/07/30 07:16:34;;;;;;;11.07;6.82;;;;;;;;;;6240277;23;20242;-88
2021/07/30 07:19:40;;;;;;;13.80;7.47;;;;;;;;;;6256652;23;20178;-87
2021/07/30 07:22:46;;;;;;;10.45;6.90;;;;;;;;;;6255807;23;20166;-86
2021/07/30 07:25:51;;;;;;;9.95;7.10;;;;;;;;;;6258082;23;20300;-88
2021/07/30 07:28:56;;;;;;;15.05;6.97;;;;;;;;;;6241640;23;20187;-90
2021/07/30 07:32:02;;;;;;;9.57;6.72;;;;;;;;;;6256253;22;20182;-88
2021/07/30 07:35:08;;;;;;;15.05;7.60;;;;;;;;;;6238854;23;20182;-88
2021/07/30 07:38:13;;;;;;;13.13;6.80;;;;;;;;;;6256987;23;20286;-88
2021/07/30 07:41:18;;;;;;;11.15;7.25;;;;;;;;;;6257143;23;20170;-90
2021/07/30 07:44:25;;;;;;;11.75;7.03;;;;;;;;;;6254268;23;20170;-89
2021/07/30 07:47:31;;;;;;;10.70;7.28;;;;;;;;;;6257267;23;20170;-89
2021/07/30 07:50:39;;;;;;;13.13;7.40;;;;;;;;;;6237897;23;20170;-90
2021/07/30 07:53:44;;;;;;;14.80;7.40;;;;;;;;;;6256477;23;20677;-89
2021/07/30 07:56:50;;;;;;;13.20;7.00;;;;;;;;;;6239878;23;20281;-89
2021/07/30 07:59:56;;;;;;;16.92;6.93;;;;;;;;;;6255652;23;20174;-89
2021/07/30 08:03:01;;;;;;;11.77;7.10;;;;;;;;;;6237995;23;20154;-90
2021/07/30 08:06:08;;;;;;;13.48;6.88;;;;;;;;;;6239726;23;20237;-88
2021/07/30 08:09:13;;;;;;;13.90;6.82;;;;;;;;;;6255994;23;20171;-89
2021/07/30 08:12:18;;;;;;;12.25;8.25;;;;;;;;;;6257831;23;20435;-90
2021/07/30 08:15:23;;;;;;;11.05;6.55;;;;;;;;;;6257493;23;20178;-88
2021/07/30 08:18:29;;;;;;;12.60;6.80;;;;;;;;;;6256368;22;20150;-88
2021/07/30 08:21:36;;;;;;;15.63;7.05;;;;;;;;;;6256499;23;20155;-87
2021/07/30 08:24:41;;;;;;;10.50;7.25;;;;;;;;;;6254908;23;20251;-87
2021/07/30 08:27:46;;;;;;;10.50;6.72;;;;;;;;;;6254784;23;20227;-88
2021/07/30 08:31:03;;;;;;;9.88;6.90;;;;;;;;;;6257144;22;20233;-88
2021/07/30 08:34:08;;;;;;;17.42;9.18;;;;;;;;;;6241851;23;20158;-89
2021/07/30 08:37:15;;;;;;;11.95;7.18;;;;;;;;;;6259596;23;20616;-88
2021/07/30 08:40:20;;;;;;;10.55;6.65;;;;;;;;;;6241810;23;20158;-89
2021/07/30 08:43:25;;;;;;;11.15;6.10;;;;;;;;;;6257629;23;20702;-88
2021/07/30 08:46:31;;;;;;;9.02;6.28;;;;;;;;;;6260038;23;20197;-89
2021/07/30 08:49:36;;;;;;;11.43;6.18;;;;;;;;;;6257582;23;20185;-89
2021/07/30 08:52:43;;;;;;;10.77;5.78;;;;;;;;;;6258324;23;20177;-88
2021/07/30 08:55:48;;;;;;;10.95;5.88;;;;;;;;;;6241603;23;20161;-89
2021/07/30 08:58:53;;;;;;;9.13;6.22;;;;;;;;;;6259020;23;20532;-89
2021/07/30 09:01:58;;;;;;;10.00;5.95;;;;;;;;;;6242265;22;20189;-89
2021/07/30 09:05:18;;;;;;;8.40;5.63;;;;;;;;;;6245735;23;20157;-90
2021/07/30 09:08:26;;;;;;;7.28;5.30;;;;;;;;;;6242422;23;20252;-90
2021/07/30 09:11:33;;;;;;;6.38;4.97;;;;;;;;;;6242439;23;20166;-89
2021/07/30 09:14:41;;;;;;;10.40;5.55;;;;;;;;;;6258064;22;20224;-90
2021/07/30 09:17:46;;;;;;;8.07;4.82;;;;;;;;;;6242501;23;20223;-90
2021/07/30 09:20:51;;;;;;;10.20;6.63;;;;;;;;;;6258994;23;20226;-91
2021/07/30 09:23:59;;;;;;;7.85;4.82;;;;;;;;;;6258634;22;20166;-91
2021/07/30 09:27:03;;;;;;;9.43;5.15;;;;;;;;;;6240285;23;20173;-89
2021/07/30 09:30:15;;;;;;;10.50;5.38;;;;;;;;;;6257101;23;20178;-89
2021/07/30 09:33:25;;;;;;;10.88;5.10;;;;;;;;;;6240683;22;20377;-89
2021/07/30 09:36:43;;;;;;;7.07;5.25;;;;;;;;;;6257350;23;20317;-90
2021/07/30 09:39:51;;;;;;;9.35;4.85;;;;;;;;;;6257769;23;20226;-89
2021/07/30 09:42:56;;;;;;;7.80;4.30;;;;;;;;;;6258271;23;20166;-89
2021/07/30 09:46:12;;;;;;;7.63;4.63;;;;;;;;;;6258140;23;20223;-89
2021/07/30 09:49:17;;;;;;;7.18;4.55;;;;;;;;;;6258116;22;20206;-89
2021/07/30 09:52:23;;;;;;;10.75;4.30;;;;;;;;;;6239492;23;20174;-91
2021/07/30 09:55:30;;;;;;;6.32;4.55;;;;;;;;;;6262678;23;20296;-89
2021/07/30 09:58:35;;;;;;;9.15;4.93;;;;;;;;;;6257558;23;20161;-90
2021/07/30 10:01:42;;;;;;;7.63;5.53;;;;;;;;;;6258734;23;20205;-89
2021/07/30 10:04:48;;;;;;;5.85;4.50;;;;;;;;;;6259596;23;20222;-88
2021/07/30 10:07:54;;;;;;;6.15;4.80;;;;;;;;;;6238909;23;20239;-88
2021/07/30 10:11:01;;;;;;;7.88;4.90;;;;;;;;;;6259433;23;20165;-90
2021/07/30 10:14:06;;;;;;;6.63;4.28;;;;;;;;;;6239601;23;20640;-89
2021/07/30 10:17:14;;;;;;;5.25;4.40;;;;;;;;;;6255497;23;20181;-89
2021/07/30 10:20:20;;;;;;;6.60;4.43;;;;;;;;;;6256977;22;20157;-90
2021/07/30 10:23:25;;;;;;;6.40;4.82;;;;;;;;;;6255247;23;20668;-89
2021/07/30 10:26:32;;;;;;;10.10;4.88;;;;;;;;;;6238000;23;20281;-90
2021/07/30 10:29:55;;;;;;;5.57;4.53;;;;;;;;;;6254361;23;20170;-88
2021/07/30 10:33:01;;;;;;;5.82;4.28;;;;;;;;;;6236826;23;20655;-88
2021/07/30 10:36:07;;;;;;;5.38;4.38;;;;;;;;;;6238082;23;20244;-90
2021/07/30 10:39:15;;;;;;;6.30;4.50;;;;;;;;;;6256787;22;20177;-89
2021/07/30 10:42:21;;;;;;;6.70;4.57;;;;;;;;;;6256241;23;20209;-90
2021/07/30 10:45:26;;;;;;;5.68;4.60;;;;;;;;;;6257679;23;20158;-89
2021/07/30 10:48:31;;;;;;;10.52;4.72;;;;;;;;;;6237929;23;20162;-89
2021/07/30 10:51:39;;;;;;;7.40;4.53;;;;;;;;;;6256858;23;20165;-90
2021/07/30 10:54:51;;;;;;;6.40;5.10;;;;;;;;;;6257025;22;20209;-88
2021/07/30 10:57:57;;;;;;;4.82;4.32;;;;;;;;;;6256159;22;20317;-92
2021/07/30 11:01:03;;;;;;;5.43;4.25;;;;;;;;;;6256846;23;20307;-90
2021/07/30 11:04:08;;;;;;;6.15;4.60;;;;;;;;;;6255025;23;20170;-90
2021/07/30 11:07:33;;;;;;;8.90;4.90;;;;;;;;;;6258821;22;20218;-89
2021/07/30 11:10:38;;;;;;;8.40;5.00;;;;;;;;;;6239370;22;20165;-90
2021/07/30 11:13:45;;;;;;;8.35;4.40;;;;;;;;;;6253736;23;20166;-91
2021/07/30 11:16:52;;;;;;;6.97;4.72;;;;;;;;;;6238931;23;20193;-90
2021/07/30 11:20:03;;;;;;;21.08;4.63;;;;;;;;;;6255236;23;20229;-91
2021/07/30 11:23:08;;;;;;;6.22;4.75;;;;;;;;;;6254639;23;20166;-90
2021/07/30 11:26:14;;;;;;;8.80;4.35;;;;;;;;;;6238529;23;20269;-90
2021/07/30 11:29:22;;;;;;;8.05;4.95;;;;;;;;;;6257026;23;20677;-91
2021/07/30 11:32:29;;;;;;;9.48;5.03;;;;;;;;;;6239688;23;20173;-91
2021/07/30 11:35:40;;;;;;;5.93;4.60;;;;;;;;;;6255792;23;20293;-91
2021/07/30 11:38:51;;;;;;;5.72;3.97;;;;;;;;;;6255876;23;20167;-90
2021/07/30 11:41:57;;;;;;;6.90;4.30;;;;;;;;;;6237684;23;20150;-91
2021/07/30 11:45:07;;;;;;;7.95;4.60;;;;;;;;;;6258189;23;20177;-89
2021/07/30 11:48:13;;;;;;;7.60;4.70;;;;;;;;;;6236616;23;20165;-91
2021/07/30 11:51:20;;;;;;;8.68;5.18;;;;;;;;;;6256217;23;20628;-89
2021/07/30 11:54:26;;;;;;;9.93;4.75;;;;;;;;;;6257026;23;20169;-91
2021/07/30 11:57:30;;;;;;;8.93;4.40;;;;;;;;;;6255713;23;20308;-90
2021/07/30 12:00:43;;;;;;;6.95;4.28;;;;;;;;;;6254302;23;20161;-91
2021/07/30 12:04:03;;;;;;;5.68;4.50;;;;;;;;;;6254078;23;20549;-90
2021/07/30 12:07:13;;;;;;;7.22;4.80;;;;;;;;;;6240205;23;20266;-91
2021/07/30 12:10:19;;;;;;;6.80;4.45;;;;;;;;;;6238236;23;20219;-91
2021/07/30 12:13:24;;;;;;;5.90;4.40;;;;;;;;;;6257488;23;20170;-90
2021/07/30 12:16:31;;;;;;;6.50;4.30;;;;;;;;;;6258988;23;20277;-92
2021/07/30 12:19:37;;;;;;;7.60;4.30;;;;;;;;;;6239410;23;20178;-91
2021/07/30 12:22:43;;;;;;;9.90;4.40;;;;;;;;;;6257140;23;20178;-91
2021/07/30 12:25:49;;;;;;;6.85;4.97;;;;;;;;;;6240189;23;20165;-90
2021/07/30 12:28:54;;;;;;;6.45;4.85;;;;;;;;;;6257716;23;20169;-91
2021/07/30 12:32:14;;;;;;;7.28;4.93;;;;;;;;;;6256078;23;20166;-90
2021/07/30 12:35:19;;;;;;;5.85;4.40;;;;;;;;;;6256649;22;20166;-90
2021/07/30 12:38:24;;;;;;;9.10;4.97;;;;;;;;;;6258392;22;20180;-89
2021/07/30 12:41:30;;;;;;;6.13;4.53;;;;;;;;;;6240218;22;20162;-90
2021/07/30 12:44:36;;;;;;;6.22;4.30;;;;;;;;;;6255514;23;20216;-90
2021/07/30 12:47:57;;;;;;;6.93;4.78;;;;;;;;;;6238174;23;20248;-91
2021/07/30 12:51:02;;;;;;;13.05;5.15;;;;;;;;;;6256925;23;20613;-90
2021/07/30 12:54:07;;;;;;;6.18;4.57;;;;;;;;;;6240140;23;20166;-91
2021/07/30 12:57:15;;;;;;;9.15;4.88;;;;;;;;;;6256822;23;20192;-89
2021/07/30 13:00:30;;;;;;;5.93;4.70;;;;;;;;;;6257728;23;20664;-91
2021/07/30 13:03:44;;;;;;;6.18;4.70;;;;;;;;;;6261810;23;20154;-92
2021/07/30 13:06:50;;;;;;;9.10;5.10;;;;;;;;;;6242853;23;20308;-91
2021/07/30 13:09:55;;;;;;;7.05;4.60;;;;;;;;;;6255723;22;20165;-91
2021/07/30 13:13:00;;;;;;;7.63;4.45;;;;;;;;;;6257552;23;20201;-89
2021/07/30 13:16:06;;;;;;;7.18;4.15;;;;;;;;;;6259266;22;20182;-92
2021/07/30 13:19:12;;;;;;;6.53;4.90;;;;;;;;;;6256549;23;20205;-90
2021/07/30 13:22:18;;;;;;;5.03;4.53;;;;;;;;;;6257737;23;20174;-90
2021/07/30 13:25:23;;;;;;;8.52;5.22;;;;;;;;;;6258818;22;20396;-91
2021/07/30 13:28:27;;;;;;;9.80;4.90;;;;;;;;;;6260808;22;20170;-89
2021/07/30 13:31:33;;;;;;;8.23;4.82;;;;;;;;;;6258408;22;20297;-91
2021/07/30 13:34:39;;;;;;;7.28;5.15;;;;;;;;;;6257552;23;20415;-90
2021/07/30 13:37:44;;;;;;;5.88;4.65;;;;;;;;;;6242151;23;20201;-90
2021/07/30 13:40:50;;;;;;;5.45;4.60;;;;;;;;;;6258750;22;20199;-89
2021/07/30 13:43:55;;;;;;;8.70;4.80;;;;;;;;;;6258528;23;20166;-92
2021/07/30 13:47:00;;;;;;;6.20;4.63;;;;;;;;;;6258653;23;20166;-90
2021/07/30 13:50:07;;;;;;;5.50;4.50;;;;;;;;;;6258299;22;20244;-91
2021/07/30 13:53:13;;;;;;;6.60;4.72;;;;;;;;;;6256921;23;20182;-91
2021/07/30 13:56:17;;;;;;;9.65;5.35;;;;;;;;;;6257785;23;20173;-90
2021/07/30 13:59:26;;;;;;;7.28;5.00;;;;;;;;;;6257670;23;20161;-90
2021/07/30 14:02:31;;;;;;;8.70;5.45;;;;;;;;;;6259308;22;20184;-90
2021/07/30 14:05:38;;;;;;;7.38;5.10;;;;;;;;;;6259004;23;20170;-90
2021/07/30 14:08:43;;;;;;;7.45;5.13;;;;;;;;;;6259429;23;20174;-90
2021/07/30 14:11:49;;;;;;;8.60;5.30;;;;;;;;;;6257109;22;20173;-89
2021/07/30 14:14:54;;;;;;;7.60;4.70;;;;;;;;;;6257491;23;20170;-89
2021/07/30 14:18:00;;;;;;;7.15;5.10;;;;;;;;;;6256690;22;20185;-90
2021/07/30 14:21:06;;;;;;;5.53;4.75;;;;;;;;;;6238421;23;20165;-90
2021/07/30 14:24:11;;;;;;;5.93;4.63;;;;;;;;;;6258209;23;20169;-89
2021/07/30 14:27:15;;;;;;;10.13;5.40;;;;;;;;;;6258055;23;20243;-89
2021/07/30 14:30:21;;;;;;;10.35;5.43;;;;;;;;;;6257335;22;20169;-90
2021/07/30 14:33:27;;;;;;;6.20;4.88;;;;;;;;;;6257547;23;20193;-90
2021/07/30 14:36:34;;;;;;;7.90;4.95;;;;;;;;;;6254795;23;20170;-91
2021/07/30 14:39:41;;;;;;;6.95;5.20;;;;;;;;;;6256035;23;20149;-90
2021/07/30 14:42:47;;;;;;;9.25;5.00;;;;;;;;;;6255704;23;20178;-89
2021/07/30 14:45:51;;;;;;;7.85;5.10;;;;;;;;;;6238399;23;20170;-88
2021/07/30 14:48:56;;;;;;;9.07;4.78;;;;;;;;;;6255380;23;20248;-88
2021/07/30 14:52:03;;;;;;;9.80;4.95;;;;;;;;;;6256567;23;20177;-90
2021/07/30 14:55:09;;;;;;;7.50;4.95;;;;;;;;;;6256632;22;20169;-90
2021/07/30 14:58:14;;;;;;;7.13;5.10;;;;;;;;;;6239464;23;20240;-92
2021/07/30 15:01:19;;;;;;;10.55;6.22;;;;;;;;;;6258947;22;20281;-90
2021/07/30 15:04:25;;;;;;;7.63;5.10;;;;;;;;;;6259422;23;20173;-89
2021/07/30 15:07:32;;;;;;;8.57;4.70;;;;;;;;;;6222623;23;20190;-91
2021/07/30 15:10:43;;;;;;;10.20;5.40;;;;;;;;;;6240650;22;20165;-90
2021/07/30 15:13:48;;;;;;;7.43;5.53;;;;;;;;;;6258489;23;20217;-90
2021/07/30 15:16:54;;;;;;;9.80;5.28;;;;;;;;;;6257508;23;20190;-90
2021/07/30 15:19:59;;;;;;;9.07;5.32;;;;;;;;;;6258400;23;20193;-89
2021/07/30 15:23:05;;;;;;;8.80;5.25;;;;;;;;;;6256525;23;20174;-89
2021/07/30 15:26:11;;;;;;;8.05;5.20;;;;;;;;;;6259372;22;20652;-89
2021/07/30 15:29:15;;;;;;;8.90;5.10;;;;;;;;;;6261743;23;20659;-91
2021/07/30 15:32:21;;;;;;;7.28;4.85;;;;;;;;;;6257377;23;20173;-88
2021/07/30 15:35:26;;;;;;;9.52;5.32;;;;;;;;;;6240030;23;20166;-89
2021/07/30 15:38:32;;;;;;;8.05;5.00;;;;;;;;;;6256953;23;20213;-90
2021/07/30 15:41:38;;;;;;;7.47;5.25;;;;;;;;;;6240847;23;20159;-89
2021/07/30 15:44:44;;;;;;;8.77;5.18;;;;;;;;;;6257529;23;20174;-91
2021/07/30 15:47:49;;;;;;;7.63;4.80;;;;;;;;;;6257135;23;20171;-90
2021/07/30 15:50:55;;;;;;;9.25;5.40;;;;;;;;;;6257198;23;20248;-90
2021/07/30 15:54:01;;;;;;;13.38;5.20;;;;;;;;;;6256409;23;20171;-90
2021/07/30 15:57:06;;;;;;;8.20;5.07;;;;;;;;;;6239298;23;20154;-90
2021/07/30 16:00:12;;;;;;;11.88;5.10;;;;;;;;;;6255615;23;20170;-90
2021/07/30 16:03:20;;;;;;;7.35;4.80;;;;;;;;;;6255650;23;20500;-90
2021/07/30 16:06:25;;;;;;;8.57;4.72;;;;;;;;;;6257673;22;20186;-89
2021/07/30 16:09:32;;;;;;;7.25;4.72;;;;;;;;;;6237302;23;20217;-90
2021/07/30 16:12:37;;;;;;;10.90;5.25;;;;;;;;;;6255834;23;20170;-90
2021/07/30 16:15:42;;;;;;;8.25;5.38;;;;;;;;;;6255840;23;20174;-89
2021/07/30 16:18:48;;;;;;;10.30;5.72;;;;;;;;;;6258211;23;20194;-89
2021/07/30 16:21:53;;;;;;;9.95;5.07;;;;;;;;;;6267636;22;20190;-91
2021/07/30 16:25:07;;;;;;;7.90;5.63;;;;;;;;;;6241554;23;20162;-90
2021/07/30 16:28:13;;;;;;;7.57;5.50;;;;;;;;;;6256091;23;20210;-90
2021/07/30 16:31:18;;;;;;;13.02;5.65;;;;;;;;;;6256115;23;20158;-90
2021/07/30 16:34:23;;;;;;;11.90;5.63;;;;;;;;;;6255760;23;20231;-88
2021/07/30 16:37:29;;;;;;;9.63;5.60;;;;;;;;;;6238688;23;20230;-89
2021/07/30 16:40:36;;;;;;;8.85;5.22;;;;;;;;;;6257602;23;20177;-90
2021/07/30 16:43:40;;;;;;;10.57;5.38;;;;;;;;;;6258432;23;20181;-91
2021/07/30 16:46:46;;;;;;;9.43;5.20;;;;;;;;;;6241216;22;20151;-90
2021/07/30 16:49:52;;;;;;;9.73;5.30;;;;;;;;;;6241225;23;20201;-90
2021/07/30 16:52:59;;;;;;;11.50;5.47;;;;;;;;;;6260381;22;20166;-90
2021/07/30 16:56:12;;;;;;;11.98;6.80;;;;;;;;;;6242230;23;20182;-90
2021/07/30 16:59:17;;;;;;;11.02;4.90;;;;;;;;;;6262482;22;20229;-91
2021/07/30 17:02:23;;;;;;;13.82;5.05;;;;;;;;;;6242681;22;20292;-90
2021/07/30 17:05:28;;;;;;;10.07;5.78;;;;;;;;;;6262951;22;20158;-91
2021/07/30 17:08:33;;;;;;;12.00;5.82;;;;;;;;;;6241498;23;20245;-90
2021/07/30 17:11:39;;;;;;;10.82;5.57;;;;;;;;;;6258691;23;20589;-89
2021/07/30 17:14:44;;;;;;;8.93;5.57;;;;;;;;;;6255262;23;20708;-88
2021/07/30 17:17:50;;;;;;;11.98;5.70;;;;;;;;;;6256047;23;20217;-89
2021/07/30 17:20:55;;;;;;;9.73;5.40;;;;;;;;;;6258616;23;20202;-90
2021/07/30 17:24:00;;;;;;;14.50;5.85;;;;;;;;;;6258966;23;20174;-90
2021/07/30 17:27:07;;;;;;;8.93;4.88;;;;;;;;;;6239977;23;20171;-91
2021/07/30 17:30:13;;;;;;;9.90;5.60;;;;;;;;;;6259577;23;20162;-90
2021/07/30 17:33:18;;;;;;;8.32;5.40;;;;;;;;;;6257176;23;20245;-90
2021/07/30 17:36:23;;;;;;;11.15;6.07;;;;;;;;;;6258761;23;20195;-89
2021/07/30 17:39:28;;;;;;;9.63;5.75;;;;;;;;;;6259480;22;20217;-90
2021/07/30 17:42:35;;;;;;;7.57;5.30;;;;;;;;;;6259383;22;20170;-89
2021/07/30 17:45:40;;;;;;;9.70;6.15;;;;;;;;;;6240302;23;20621;-90
2021/07/30 17:48:45;;;;;;;7.53;4.97;;;;;;;;;;6257163;23;20229;-89
2021/07/30 17:51:51;;;;;;;11.80;6.03;;;;;;;;;;6258213;23;20233;-90
2021/07/30 17:54:56;;;;;;;12.30;5.93;;;;;;;;;;6258521;23;20199;-89
2021/07/30 17:58:03;;;;;;;8.77;5.53;;;;;;;;;;6258925;23;20548;-88
2021/07/30 18:01:13;;;;;;;11.73;5.65;;;;;;;;;;6259158;23;20193;-88
2021/07/30 18:04:18;;;;;;;9.95;5.63;;;;;;;;;;6257901;22;20182;-89
2021/07/30 18:07:23;;;;;;;10.15;5.47;;;;;;;;;;6239398;23;20274;-89
2021/07/30 18:10:28;;;;;;;8.65;5.50;;;;;;;;;;6256673;23;20162;-87
2021/07/30 18:13:34;;;;;;;14.27;6.30;;;;;;;;;;6260485;22;20218;-90
2021/07/30 18:16:40;;;;;;;9.52;6.53;;;;;;;;;;6259702;22;20221;-88
2021/07/30 18:19:45;;;;;;;10.82;5.90;;;;;;;;;;6241915;23;20260;-91
2021/07/30 18:22:51;;;;;;;8.73;5.85;;;;;;;;;;6260452;23;20171;-89
2021/07/30 18:25:58;;;;;;;8.65;6.18;;;;;;;;;;6257620;23;20209;-90
2021/07/30 18:29:06;;;;;;;11.63;6.70;;;;;;;;;;6242539;23;20186;-90
2021/07/30 18:32:11;;;;;;;14.02;6.55;;;;;;;;;;6259665;23;20169;-90